Time;durP1;ratioP1;P1;durP2;ratioP2;P2;SDS_P1;SDS_P2;PMS_P1;PMS_P2;Temp;Humidity;BMP_temperature;BMP_pressure;BME280_temperature;BME280_humidity;BME280_pressure;Samples;Min_cycle;Max_cycle;Signal;HPM_P1;HPM_P2
2022/03/15 00:00:03;;;;;;;37.38;7.75;;;13.60;69.40;;;;;;5085357;27;20038;-62
2022/03/15 00:02:29;;;;;;;47.05;7.85;;;13.60;69.30;;;;;;5102147;27;20032;-62
2022/03/15 00:04:55;;;;;;;41.40;8.07;;;13.50;69.30;;;;;;5104408;27;20034;-62
2022/03/15 00:07:21;;;;;;;48.60;8.70;;;13.50;69.50;;;;;;5103519;28;20023;-62
2022/03/15 00:09:47;;;;;;;29.42;8.35;;;13.50;69.50;;;;;;5103765;27;20274;-62
2022/03/15 00:12:13;;;;;;;41.70;9.10;;;13.50;69.50;;;;;;5117868;27;20627;-62
2022/03/15 00:14:39;;;;;;;42.17;8.85;;;13.50;69.40;;;;;;5103831;27;20055;-62
2022/03/15 00:17:05;;;;;;;56.17;12.77;;;13.50;69.30;;;;;;5116687;27;20137;-62
2022/03/15 00:19:31;;;;;;;44.22;10.57;;;13.50;69.30;;;;;;5118510;27;20092;-62
2022/03/15 00:21:57;;;;;;;31.38;9.20;;;13.50;69.20;;;;;;5094874;28;20031;-62
2022/03/15 00:24:23;;;;;;;28.60;8.27;;;13.40;69.00;;;;;;5099053;27;20045;-62
2022/03/15 00:26:48;;;;;;;32.28;8.80;;;13.40;69.00;;;;;;5112649;27;20504;-62
2022/03/15 00:29:17;;;;;;;32.97;11.10;;;13.40;69.00;;;;;;5112979;27;20027;-62
2022/03/15 00:31:44;;;;;;;29.13;12.07;;;13.40;68.90;;;;;;5105967;27;20530;-59
2022/03/15 00:34:10;;;;;;;35.83;11.52;;;13.40;68.70;;;;;;5123278;27;20035;-60
2022/03/15 00:36:37;;;;;;;34.55;9.13;;;13.40;68.80;;;;;;5088283;27;20042;-59
2022/03/15 00:39:06;;;;;;;28.63;9.88;;;13.30;68.80;;;;;;5124658;27;20074;-60
2022/03/15 00:41:32;;;;;;;31.55;8.55;;;13.40;68.80;;;;;;5087432;27;20482;-62
2022/03/15 00:43:57;;;;;;;24.48;8.45;;;13.30;68.70;;;;;;5120003;27;20031;-60
2022/03/15 00:46:23;;;;;;;25.92;8.38;;;13.30;68.80;;;;;;5089763;27;20036;-59
2022/03/15 00:48:48;;;;;;;30.58;7.72;;;13.30;68.80;;;;;;5088535;27;20510;-60
2022/03/15 00:51:14;;;;;;;27.27;7.97;;;13.20;68.90;;;;;;5122648;27;20027;-60
2022/03/15 00:53:40;;;;;;;32.72;7.55;;;13.20;68.90;;;;;;5124828;27;20041;-60
2022/03/15 00:56:06;;;;;;;28.27;9.23;;;13.30;68.90;;;;;;5102869;27;20031;-60
2022/03/15 00:58:32;;;;;;;23.85;8.35;;;13.30;68.90;;;;;;5121700;27;20061;-59
2022/03/15 01:00:57;;;;;;;28.85;8.10;;;13.20;68.70;;;;;;5120095;27;20059;-59
2022/03/15 01:03:23;;;;;;;21.98;8.27;;;13.20;68.80;;;;;;5123062;27;20667;-60
2022/03/15 01:05:48;;;;;;;23.85;7.72;;;13.20;68.60;;;;;;5121851;27;20050;-60
2022/03/15 01:08:14;;;;;;;18.58;8.07;;;13.20;68.60;;;;;;5123170;27;20100;-59
2022/03/15 01:10:41;;;;;;;20.98;6.82;;;13.20;68.70;;;;;;5120939;27;20351;-60
2022/03/15 01:13:06;;;;;;;24.75;7.78;;;13.10;68.60;;;;;;5105103;27;20122;-62
2022/03/15 01:15:41;;;;;;;24.08;6.68;;;13.10;68.70;;;;;;5100472;27;20114;-62
2022/03/15 01:18:07;;;;;;;27.38;7.18;;;13.10;68.70;;;;;;5122094;27;20031;-60
2022/03/15 01:20:32;;;;;;;24.42;6.85;;;13.10;68.70;;;;;;5103586;27;20740;-60
2022/03/15 01:22:58;;;;;;;17.00;5.88;;;13.10;68.70;;;;;;5120190;27;20084;-60
2022/03/15 01:25:23;;;;;;;16.80;5.50;;;13.10;68.50;;;;;;5104513;27;20436;-59
2022/03/15 01:27:49;;;;;;;19.60;6.30;;;13.00;68.50;;;;;;5123478;27;20092;-59
2022/03/15 01:30:14;;;;;;;20.35;5.78;;;13.10;68.50;;;;;;5103317;27;20482;-59
2022/03/15 01:32:40;;;;;;;20.50;6.20;;;13.00;68.60;;;;;;5067543;27;20163;-60
2022/03/15 01:35:06;;;;;;;14.07;5.50;;;13.10;68.60;;;;;;5102886;27;20019;-60
2022/03/15 01:37:32;;;;;;;21.90;5.97;;;13.10;68.50;;;;;;5105201;27;20027;-60
2022/03/15 01:39:57;;;;;;;14.07;5.50;;;13.00;68.50;;;;;;5085904;27;20039;-59
2022/03/15 01:42:23;;;;;;;18.65;5.47;;;13.00;68.50;;;;;;5120964;27;20050;-60
2022/03/15 01:44:49;;;;;;;26.65;9.98;;;13.00;68.50;;;;;;5121307;27;20062;-59
2022/03/15 01:47:14;;;;;;;19.00;7.60;;;13.00;68.30;;;;;;5106252;27;20015;-59
2022/03/15 01:49:41;;;;;;;17.63;7.20;;;13.00;68.20;;;;;;5100411;27;20035;-59
2022/03/15 01:52:15;;;;;;;19.17;6.82;;;13.00;68.30;;;;;;5102677;27;20122;-60
2022/03/15 01:54:41;;;;;;;17.83;6.53;;;12.90;68.30;;;;;;5121234;27;20093;-60
2022/03/15 01:57:10;;;;;;;13.55;5.95;;;12.90;68.40;;;;;;5070857;27;20067;-59
2022/03/15 01:59:36;;;;;;;12.00;5.70;;;12.90;68.50;;;;;;5103652;27;20122;-60
2022/03/15 02:02:02;;;;;;;12.27;5.13;;;12.90;68.40;;;;;;5102495;27;20043;-60
2022/03/15 02:04:27;;;;;;;15.98;5.22;;;12.90;68.50;;;;;;5104111;27;20020;-60
2022/03/15 02:07:06;;;;;;;10.48;5.00;;;12.90;68.50;;;;;;5101223;27;20054;-60
2022/03/15 02:09:32;;;;;;;19.42;5.07;;;12.90;68.60;;;;;;5086439;27;20042;-59
2022/03/15 02:11:58;;;;;;;12.68;5.00;;;12.90;68.80;;;;;;5120010;27;20028;-59
2022/03/15 02:14:24;;;;;;;9.63;4.85;;;12.90;68.90;;;;;;5084760;27;20479;-60
2022/03/15 02:16:49;;;;;;;13.35;5.70;;;12.90;69.10;;;;;;5119911;27;20038;-60
2022/03/15 02:19:15;;;;;;;14.95;4.82;;;13.10;69.20;;;;;;5104045;27;20687;-60
2022/03/15 02:21:40;;;;;;;13.02;4.70;;;12.80;69.10;;;;;;5113900;27;20051;-60
2022/03/15 02:24:06;;;;;;;15.57;4.93;;;12.90;69.30;;;;;;5118351;27;20039;-60
2022/03/15 02:26:32;;;;;;;13.95;5.25;;;12.80;69.30;;;;;;5100327;27;20145;-60
2022/03/15 02:28:57;;;;;;;10.00;4.97;;;12.90;69.80;;;;;;5067182;27;20035;-60
2022/03/15 02:31:24;;;;;;;8.88;4.60;;;12.90;69.90;;;;;;5084179;27;20050;-59
2022/03/15 02:33:49;;;;;;;11.00;4.28;;;12.90;69.70;;;;;;5100622;27;20023;-60
2022/03/15 02:36:16;;;;;;;9.38;4.22;;;12.90;69.60;;;;;;5082856;27;20378;-60
2022/03/15 02:38:42;;;;;;;10.05;4.47;;;12.90;69.50;;;;;;5117402;27;20030;-59
2022/03/15 02:41:07;;;;;;;9.65;4.30;;;12.90;69.50;;;;;;5120214;27;20023;-59
2022/03/15 02:43:33;;;;;;;10.60;4.32;;;12.90;69.60;;;;;;5117333;27;20031;-60
2022/03/15 02:45:58;;;;;;;11.52;4.60;;;12.80;69.50;;;;;;5100198;27;20023;-60
2022/03/15 02:48:24;;;;;;;9.75;3.60;;;12.80;69.60;;;;;;5100220;27;20497;-59
2022/03/15 02:50:49;;;;;;;8.60;3.97;;;12.80;69.60;;;;;;5116353;27;20440;-60
2022/03/15 02:53:16;;;;;;;13.38;5.28;;;12.80;69.60;;;;;;5116449;27;20821;-59
2022/03/15 02:55:43;;;;;;;15.75;6.45;;;12.80;69.60;;;;;;5117884;27;20869;-60
2022/03/15 02:58:08;;;;;;;13.73;6.57;;;12.70;69.60;;;;;;5114343;28;20027;-59
2022/03/15 03:00:34;;;;;;;8.73;5.55;;;12.80;69.50;;;;;;5069421;28;20047;-60
2022/03/15 03:02:59;;;;;;;10.55;4.63;;;12.80;69.50;;;;;;5116544;27;20045;-60
2022/03/15 03:05:26;;;;;;;9.88;5.40;;;12.70;69.30;;;;;;5086371;28;20031;-60
2022/03/15 03:07:51;;;;;;;9.27;4.38;;;12.70;69.30;;;;;;5119365;28;20015;-60
2022/03/15 03:10:17;;;;;;;7.40;4.22;;;12.70;69.90;;;;;;5118413;27;20515;-59
2022/03/15 03:12:44;;;;;;;9.75;4.18;;;12.70;69.20;;;;;;5114320;27;20031;-60
2022/03/15 03:15:13;;;;;;;13.90;5.03;;;12.60;69.10;;;;;;5101171;28;20023;-59
2022/03/15 03:17:42;;;;;;;8.43;4.60;;;12.70;69.30;;;;;;5086847;28;20088;-59
2022/03/15 03:20:13;;;;;;;9.18;4.13;;;12.70;69.20;;;;;;5103206;28;20023;-59
2022/03/15 03:22:39;;;;;;;11.23;4.35;;;12.70;69.20;;;;;;5101412;28;20486;-59
2022/03/15 03:25:05;;;;;;;8.15;4.32;;;12.70;69.20;;;;;;5118833;27;20084;-62
2022/03/15 03:27:30;;;;;;;8.40;3.78;;;12.60;69.00;;;;;;5100819;28;20439;-60
2022/03/15 03:29:58;;;;;;;6.90;3.53;;;12.70;69.00;;;;;;5119412;27;20203;-60
2022/03/15 03:32:25;;;;;;;6.93;3.67;;;12.60;69.00;;;;;;5120778;27;20051;-60
2022/03/15 03:34:50;;;;;;;8.35;4.05;;;12.60;69.00;;;;;;5120814;28;20042;-60
2022/03/15 03:37:16;;;;;;;6.20;3.60;;;12.60;69.00;;;;;;5121547;28;20383;-60
2022/03/15 03:39:42;;;;;;;6.82;3.60;;;12.60;69.10;;;;;;5120231;28;20302;-60
2022/03/15 03:42:08;;;;;;;7.53;3.67;;;12.60;69.10;;;;;;5115575;27;20038;-60
2022/03/15 03:44:35;;;;;;;7.93;3.70;;;12.60;69.20;;;;;;5119349;28;20122;-60
2022/03/15 03:47:00;;;;;;;12.10;4.00;;;12.60;69.30;;;;;;5119452;27;20111;-60
2022/03/15 03:49:27;;;;;;;5.82;3.83;;;12.60;69.30;;;;;;5121527;28;20348;-60
2022/03/15 03:51:52;;;;;;;8.65;4.18;;;12.60;69.50;;;;;;5120208;28;20023;-60
2022/03/15 03:54:18;;;;;;;11.43;4.40;;;12.50;69.50;;;;;;5120002;28;20054;-60
2022/03/15 03:56:44;;;;;;;9.77;4.10;;;12.50;69.60;;;;;;5102501;28;20030;-60
2022/03/15 03:59:11;;;;;;;6.38;3.75;;;12.50;69.60;;;;;;5098738;28;20019;-60
2022/03/15 04:01:37;;;;;;;7.13;4.18;;;12.50;69.70;;;;;;5120720;28;20023;-60
2022/03/15 04:04:05;;;;;;;6.55;3.95;;;12.50;69.80;;;;;;5121616;27;20027;-60
2022/03/15 04:06:32;;;;;;;7.85;3.75;;;12.50;70.00;;;;;;5123932;27;20564;-60
2022/03/15 04:08:58;;;;;;;8.90;4.13;;;12.40;70.10;;;;;;5105991;27;20122;-61
2022/03/15 04:11:24;;;;;;;9.82;3.70;;;12.40;70.20;;;;;;5086487;27;20024;-59
2022/03/15 04:13:49;;;;;;;6.15;3.40;;;12.40;70.20;;;;;;5104174;27;20455;-59
2022/03/15 04:16:15;;;;;;;5.65;3.60;;;12.30;70.40;;;;;;5124020;27;20038;-58
2022/03/15 04:18:40;;;;;;;12.35;4.47;;;12.40;70.50;;;;;;5119787;27;20765;-60
2022/03/15 04:21:06;;;;;;;13.63;3.83;;;12.40;70.60;;;;;;5119155;27;20086;-60
2022/03/15 04:23:32;;;;;;;7.22;3.55;;;12.40;70.50;;;;;;5123935;27;20469;-59
2022/03/15 04:25:57;;;;;;;5.15;3.67;;;12.40;70.80;;;;;;5124132;27;20019;-60
2022/03/15 04:28:23;;;;;;;6.90;3.63;;;12.30;70.70;;;;;;5124873;27;20031;-61
2022/03/15 04:30:48;;;;;;;4.93;3.45;;;12.30;70.90;;;;;;5110957;27;20127;-60
2022/03/15 04:33:14;;;;;;;7.00;3.10;;;12.20;71.10;;;;;;5101799;28;20040;-59
2022/03/15 04:35:40;;;;;;;5.00;2.88;;;12.30;71.50;;;;;;5081966;28;20039;-60
2022/03/15 04:38:05;;;;;;;6.57;3.20;;;12.30;71.60;;;;;;5102261;28;20023;-60
2022/03/15 04:40:31;;;;;;;5.85;3.35;;;12.30;71.70;;;;;;5104599;28;20494;-60
2022/03/15 04:42:57;;;;;;;6.55;3.38;;;12.20;71.80;;;;;;5067101;28;20027;-60
2022/03/15 04:45:24;;;;;;;7.70;3.30;;;12.20;71.90;;;;;;5103678;28;20458;-60
2022/03/15 04:47:50;;;;;;;6.18;3.40;;;12.20;72.00;;;;;;5084775;28;20039;-59
2022/03/15 04:50:15;;;;;;;7.15;3.60;;;12.20;72.00;;;;;;5068300;28;20235;-59
2022/03/15 04:52:41;;;;;;;4.40;2.95;;;12.20;72.00;;;;;;5097460;28;20057;-59
2022/03/15 04:55:07;;;;;;;5.78;3.13;;;12.20;72.10;;;;;;5102141;27;20020;-60
2022/03/15 04:57:32;;;;;;;7.00;3.38;;;12.20;72.10;;;;;;5099861;27;20035;-59
2022/03/15 04:59:58;;;;;;;6.45;2.97;;;12.20;72.30;;;;;;5081989;28;20040;-60
2022/03/15 05:02:24;;;;;;;9.00;3.30;;;12.20;72.50;;;;;;5064909;28;20028;-58
2022/03/15 05:04:50;;;;;;;6.03;3.20;;;12.10;72.60;;;;;;5067241;28;20027;-59
2022/03/15 05:07:15;;;;;;;5.10;2.90;;;12.10;72.80;;;;;;5083631;28;20020;-61
2022/03/15 05:11:05;;;;;;;6.68;3.20;;;12.20;73.10;;;;;;5080694;28;20066;-59
2022/03/15 05:12:27;;;;;;;6.60;3.10;;;12.10;73.20;;;;;;5083499;28;20071;-59
2022/03/15 05:14:52;;;;;;;14.95;3.63;;;11.90;73.10;;;;;;5067437;28;20051;-60
2022/03/15 05:17:19;;;;;;;9.43;3.10;;;12.00;73.20;;;;;;5102634;28;20065;-60
2022/03/15 05:19:46;;;;;;;15.70;3.88;;;12.10;73.30;;;;;;5100044;28;20276;-60
2022/03/15 05:22:12;;;;;;;9.27;3.88;;;12.10;73.30;;;;;;5083656;28;20149;-60
2022/03/15 05:24:38;;;;;;;11.52;3.90;;;12.10;73.30;;;;;;5098978;28;20035;-60
2022/03/15 05:27:03;;;;;;;6.63;3.60;;;12.10;73.30;;;;;;5079683;28;20050;-59
2022/03/15 05:29:29;;;;;;;12.18;4.20;;;12.10;73.30;;;;;;5097357;27;20085;-59
2022/03/15 05:31:55;;;;;;;10.32;4.10;;;12.10;73.30;;;;;;5089647;27;20041;-59
2022/03/15 05:34:20;;;;;;;6.95;3.53;;;12.00;73.30;;;;;;5084254;28;20080;-61
2022/03/15 05:36:48;;;;;;;6.32;3.58;;;12.00;73.40;;;;;;5082873;27;20454;-58
2022/03/15 05:39:14;;;;;;;9.57;3.42;;;12.00;73.40;;;;;;5079956;28;20139;-60
2022/03/15 05:41:41;;;;;;;14.95;4.07;;;12.00;73.50;;;;;;5103061;27;20867;-59
2022/03/15 05:44:07;;;;;;;9.18;4.40;;;12.00;73.60;;;;;;5062028;28;20371;-59
2022/03/15 05:46:32;;;;;;;12.48;3.72;;;12.00;73.70;;;;;;5105095;27;20017;-59
2022/03/15 05:48:58;;;;;;;12.70;4.30;;;12.00;73.70;;;;;;5080437;28;20421;-60
2022/03/15 05:51:23;;;;;;;11.32;3.58;;;12.00;73.90;;;;;;5084660;27;20187;-59
2022/03/15 05:53:49;;;;;;;14.40;3.47;;;12.00;73.90;;;;;;5105782;27;20416;-59
2022/03/15 05:56:14;;;;;;;10.35;3.30;;;12.00;74.10;;;;;;5104084;27;20031;-60
2022/03/15 05:58:41;;;;;;;7.60;3.38;;;11.90;74.00;;;;;;5104830;27;20035;-59
2022/03/15 06:01:07;;;;;;;12.63;3.58;;;11.90;74.10;;;;;;5045247;27;20062;-60
2022/03/15 06:03:32;;;;;;;21.83;4.70;;;11.80;74.20;;;;;;5105655;27;20484;-59
2022/03/15 06:05:58;;;;;;;27.48;5.13;;;12.00;74.40;;;;;;5106703;27;20048;-59
2022/03/15 06:08:24;;;;;;;65.53;8.13;;;11.90;74.60;;;;;;5084522;27;20047;-60
2022/03/15 06:10:49;;;;;;;49.08;7.18;;;11.90;74.50;;;;;;5088209;27;20528;-60
2022/03/15 06:13:15;;;;;;;23.20;4.97;;;12.00;74.70;;;;;;5099459;27;20035;-59
2022/03/15 06:15:40;;;;;;;26.75;4.95;;;11.90;74.70;;;;;;5084875;27;20020;-60
2022/03/15 06:18:06;;;;;;;22.17;5.47;;;11.90;74.80;;;;;;5072643;27;20544;-59
2022/03/15 06:20:32;;;;;;;23.45;4.25;;;11.90;75.00;;;;;;5107420;27;20024;-59
2022/03/15 06:22:59;;;;;;;18.52;4.18;;;12.00;75.10;;;;;;5104376;27;20039;-59
2022/03/15 06:25:25;;;;;;;20.00;4.18;;;11.90;75.10;;;;;;5076877;28;20405;-60
2022/03/15 06:27:50;;;;;;;20.98;5.05;;;11.80;75.20;;;;;;5076598;28;20478;-59
2022/03/15 06:30:16;;;;;;;18.92;4.50;;;11.90;75.30;;;;;;5107023;27;20041;-59
2022/03/15 06:32:41;;;;;;;18.48;4.80;;;11.90;75.50;;;;;;5103694;27;20020;-59
2022/03/15 06:35:08;;;;;;;15.48;4.20;;;11.80;75.60;;;;;;5115949;27;20462;-59
2022/03/15 06:37:38;;;;;;;30.60;4.43;;;11.80;75.90;;;;;;5102756;28;20416;-59
2022/03/15 06:40:06;;;;;;;15.35;4.65;;;11.80;75.90;;;;;;5103685;27;20027;-60
2022/03/15 06:42:31;;;;;;;14.65;4.10;;;11.80;76.10;;;;;;5119740;27;20043;-59
2022/03/15 06:44:57;;;;;;;16.05;4.13;;;11.80;76.20;;;;;;5099930;27;20023;-59
2022/03/15 06:47:23;;;;;;;13.25;3.88;;;11.80;77.00;;;;;;5113243;27;20038;-60
2022/03/15 06:49:48;;;;;;;17.42;4.30;;;11.80;76.30;;;;;;5120348;27;20027;-60
2022/03/15 06:52:14;;;;;;;16.90;4.25;;;11.80;76.50;;;;;;5118372;27;20653;-59
2022/03/15 06:54:39;;;;;;;15.18;3.65;;;11.80;76.50;;;;;;5107461;27;20039;-59
2022/03/15 06:57:05;;;;;;;7.63;3.45;;;11.80;76.50;;;;;;5099758;27;20039;-61
2022/03/15 06:59:30;;;;;;;21.33;4.30;;;11.80;76.60;;;;;;5095103;27;20061;-60
2022/03/15 07:01:56;;;;;;;9.40;3.53;;;11.80;76.70;;;;;;5116802;27;20127;-58
2022/03/15 07:04:21;;;;;;;10.38;4.13;;;11.80;76.80;;;;;;5098671;27;20043;-60
2022/03/15 07:06:47;;;;;;;12.75;3.97;;;11.80;77.00;;;;;;5089655;28;20487;-60
2022/03/15 07:09:12;;;;;;;9.30;3.58;;;11.80;77.00;;;;;;5095474;28;20071;-60
2022/03/15 07:11:38;;;;;;;11.98;4.30;;;11.80;77.10;;;;;;5117525;28;20046;-60
2022/03/15 07:14:04;;;;;;;11.60;3.92;;;11.80;77.20;;;;;;5095594;28;20474;-60
2022/03/15 07:16:30;;;;;;;8.65;3.53;;;11.80;77.30;;;;;;5098467;28;20392;-60
2022/03/15 07:18:56;;;;;;;11.38;3.85;;;11.80;77.20;;;;;;5117645;28;20470;-61
2022/03/15 07:21:21;;;;;;;10.18;3.58;;;11.80;77.50;;;;;;5068095;28;20042;-61
2022/03/15 07:23:47;;;;;;;10.52;3.70;;;11.80;77.30;;;;;;5117630;27;20119;-62
2022/03/15 07:26:12;;;;;;;14.63;4.28;;;11.80;77.40;;;;;;5100416;27;20027;-62
2022/03/15 07:28:38;;;;;;;14.02;4.13;;;11.70;77.40;;;;;;5116859;27;20592;-60
2022/03/15 07:31:04;;;;;;;11.68;3.50;;;11.80;77.50;;;;;;5120798;28;20044;-60
2022/03/15 07:33:30;;;;;;;14.98;3.70;;;11.80;77.60;;;;;;5121023;28;20035;-60
2022/03/15 07:35:55;;;;;;;10.27;4.07;;;11.70;77.70;;;;;;5099136;28;20036;-59
2022/03/15 07:38:21;;;;;;;9.75;4.05;;;11.70;77.80;;;;;;5120701;27;20035;-59
2022/03/15 07:40:48;;;;;;;17.90;3.88;;;11.70;77.80;;;;;;5086731;27;20087;-60
2022/03/15 07:43:14;;;;;;;15.95;4.35;;;11.70;77.80;;;;;;5067491;27;20534;-59
2022/03/15 07:45:40;;;;;;;13.18;4.13;;;11.70;77.80;;;;;;5122856;27;20122;-60
2022/03/15 07:48:06;;;;;;;16.02;4.65;;;11.70;77.90;;;;;;5086593;27;20545;-59
2022/03/15 07:50:32;;;;;;;14.55;4.28;;;11.70;77.90;;;;;;5117863;27;20046;-60
2022/03/15 07:52:58;;;;;;;13.57;4.88;;;11.70;78.00;;;;;;5098373;27;20046;-60
2022/03/15 07:55:23;;;;;;;14.82;4.40;;;11.70;78.00;;;;;;5105183;27;20150;-58
2022/03/15 07:57:49;;;;;;;14.35;4.30;;;11.70;78.10;;;;;;5103784;27;20046;-60
2022/03/15 08:00:15;;;;;;;18.92;4.90;;;11.70;78.20;;;;;;5100832;27;20113;-60
2022/03/15 08:02:41;;;;;;;19.25;5.38;;;11.70;78.20;;;;;;5080151;27;20062;-60
2022/03/15 08:05:07;;;;;;;17.35;5.28;;;11.70;78.30;;;;;;5117736;27;20030;-59
2022/03/15 08:07:35;;;;;;;14.48;4.20;;;11.70;78.30;;;;;;5097673;27;20111;-59
2022/03/15 08:10:00;;;;;;;22.48;4.93;;;11.80;78.40;;;;;;5099438;27;20130;-60
2022/03/15 08:12:26;;;;;;;23.45;5.88;;;11.80;78.40;;;;;;5121616;27;20130;-59
2022/03/15 08:14:52;;;;;;;24.05;5.15;;;11.60;78.40;;;;;;5099319;27;20243;-58
2022/03/15 08:17:17;;;;;;;25.30;5.20;;;11.80;78.60;;;;;;5096887;27;20035;-60
2022/03/15 08:19:43;;;;;;;26.55;5.68;;;11.80;78.70;;;;;;5081421;27;20045;-60
2022/03/15 08:22:08;;;;;;;22.10;5.13;;;11.80;78.80;;;;;;5093885;27;20057;-60
2022/03/15 08:24:34;;;;;;;22.70;4.68;;;11.80;78.90;;;;;;5099814;27;20050;-60
2022/03/15 08:26:59;;;;;;;23.38;5.05;;;11.90;78.90;;;;;;5121150;27;20081;-60
2022/03/15 08:29:26;;;;;;;17.70;5.32;;;11.80;79.00;;;;;;5119244;27;20869;-59
2022/03/15 08:31:51;;;;;;;34.42;5.85;;;11.90;79.20;;;;;;5097846;27;20030;-59
2022/03/15 08:34:17;;;;;;;28.77;5.55;;;11.80;79.60;;;;;;5101928;27;20343;-60
2022/03/15 08:36:44;;;;;;;25.85;5.10;;;11.90;79.70;;;;;;5112211;27;20035;-60
2022/03/15 08:39:09;;;;;;;32.08;6.40;;;11.90;79.60;;;;;;5102204;27;20035;-60
2022/03/15 08:41:35;;;;;;;16.98;5.07;;;11.90;79.70;;;;;;5124649;27;20820;-60
2022/03/15 08:44:00;;;;;;;24.08;4.50;;;11.90;80.10;;;;;;5087132;27;20026;-59
2022/03/15 08:46:26;;;;;;;24.73;5.57;;;11.90;79.60;;;;;;5122107;27;20026;-61
2022/03/15 08:48:53;;;;;;;23.85;5.15;;;11.90;79.40;;;;;;5098354;28;20426;-60
2022/03/15 08:51:18;;;;;;;28.10;6.25;;;11.90;79.40;;;;;;5121272;27;20027;-59
2022/03/15 08:53:44;;;;;;;27.00;5.90;;;11.90;79.70;;;;;;5122196;27;20039;-59
2022/03/15 08:56:09;;;;;;;47.88;6.25;;;11.90;79.70;;;;;;5122251;27;20062;-60
2022/03/15 08:58:35;;;;;;;39.65;6.68;;;12.00;79.70;;;;;;5117036;27;20122;-59
2022/03/15 09:01:00;;;;;;;29.13;5.90;;;12.00;79.80;;;;;;5121409;27;20552;-59
2022/03/15 09:03:26;;;;;;;30.65;6.40;;;12.00;79.80;;;;;;5102767;27;20046;-60
2022/03/15 09:05:52;;;;;;;19.90;5.00;;;12.00;80.00;;;;;;5097594;27;20035;-60
2022/03/15 09:08:17;;;;;;;35.38;6.13;;;12.00;80.10;;;;;;5100966;27;20034;-60
2022/03/15 09:10:44;;;;;;;22.48;6.38;;;12.00;79.90;;;;;;5116231;27;20490;-59
2022/03/15 09:13:10;;;;;;;24.75;5.72;;;12.00;80.00;;;;;;5118380;27;20023;-60
2022/03/15 09:15:35;;;;;;;28.63;7.10;;;12.00;80.20;;;;;;5085683;27;20673;-59
2022/03/15 09:18:02;;;;;;;33.38;6.63;;;12.00;80.10;;;;;;5069401;27;20108;-59
2022/03/15 09:20:27;;;;;;;32.05;6.72;;;12.00;80.30;;;;;;5121001;27;20043;-59
2022/03/15 09:22:53;;;;;;;21.98;6.35;;;12.00;80.10;;;;;;5083301;27;20382;-61
2022/03/15 09:25:19;;;;;;;33.45;6.80;;;12.00;80.20;;;;;;5102881;27;20035;-60
2022/03/15 09:27:46;;;;;;;40.20;7.10;;;12.00;80.70;;;;;;5078080;27;20042;-60
2022/03/15 09:30:12;;;;;;;34.50;6.95;;;12.00;81.10;;;;;;5076985;28;20640;-60
2022/03/15 09:32:37;;;;;;;41.67;6.90;;;12.00;81.10;;;;;;5076208;28;20046;-59
2022/03/15 09:35:03;;;;;;;30.48;7.30;;;12.00;81.00;;;;;;5071043;28;20740;-61
2022/03/15 09:37:29;;;;;;;37.97;7.32;;;12.10;81.20;;;;;;5095485;28;20541;-61
2022/03/15 09:39:57;;;;;;;45.55;6.28;;;12.10;81.00;;;;;;5066979;28;20028;-61
2022/03/15 09:42:23;;;;;;;43.20;7.22;;;12.10;80.80;;;;;;5078601;28;20020;-60
2022/03/15 09:44:49;;;;;;;39.72;7.13;;;12.10;80.80;;;;;;5100950;27;20028;-61
2022/03/15 09:47:17;;;;;;;29.13;6.55;;;12.10;81.20;;;;;;5099663;27;20081;-59
2022/03/15 09:49:43;;;;;;;28.85;6.22;;;12.10;80.70;;;;;;5082850;28;20024;-60
2022/03/15 09:52:10;;;;;;;27.92;7.80;;;12.00;80.70;;;;;;5084274;28;20027;-59
2022/03/15 09:54:35;;;;;;;32.60;6.70;;;12.10;80.60;;;;;;5083931;28;20024;-61
2022/03/15 09:57:03;;;;;;;46.17;7.25;;;12.10;81.30;;;;;;5081890;28;20055;-59
2022/03/15 09:59:28;;;;;;;23.30;5.65;;;12.10;81.50;;;;;;5082787;28;20127;-59
2022/03/15 10:01:57;;;;;;;39.80;6.50;;;12.10;81.00;;;;;;5100692;27;20165;-59
2022/03/15 10:04:23;;;;;;;25.83;6.03;;;12.10;80.60;;;;;;5083051;28;20054;-58
2022/03/15 10:06:48;;;;;;;22.63;6.15;;;12.10;80.50;;;;;;5101519;28;20051;-59
2022/03/15 10:09:14;;;;;;;29.73;6.63;;;12.10;80.50;;;;;;5083906;28;20351;-59
2022/03/15 10:11:39;;;;;;;23.80;6.18;;;12.10;80.50;;;;;;5079678;28;20053;-60
2022/03/15 10:14:05;;;;;;;22.45;5.50;;;12.10;80.90;;;;;;5100006;27;20051;-59
2022/03/15 10:16:35;;;;;;;26.08;6.43;;;12.10;80.90;;;;;;5098833;28;20034;-60
2022/03/15 10:19:00;;;;;;;31.67;6.25;;;12.10;81.70;;;;;;5097565;28;20176;-59
2022/03/15 10:21:42;;;;;;;32.55;6.38;;;12.10;81.20;;;;;;5063549;28;20151;-59
2022/03/15 10:24:08;;;;;;;23.75;5.25;;;12.10;81.10;;;;;;5097707;28;20458;-59
2022/03/15 10:26:39;;;;;;;25.85;5.88;;;12.10;81.00;;;;;;5097325;28;20122;-60
2022/03/15 10:29:06;;;;;;;31.13;6.07;;;12.10;81.00;;;;;;5073007;28;20501;-61
2022/03/15 10:31:31;;;;;;;40.22;6.18;;;12.10;81.90;;;;;;5099226;27;20302;-60
2022/03/15 10:34:00;;;;;;;32.00;6.55;;;12.10;81.00;;;;;;5079375;27;20378;-59
2022/03/15 10:36:26;;;;;;;19.48;5.90;;;12.10;80.70;;;;;;5115625;27;20532;-59
2022/03/15 10:38:52;;;;;;;23.20;5.47;;;12.10;80.70;;;;;;5119858;27;20019;-60
2022/03/15 10:41:18;;;;;;;29.83;5.53;;;12.10;80.50;;;;;;5115048;27;20605;-60
2022/03/15 10:43:44;;;;;;;31.90;7.03;;;12.10;80.60;;;;;;5099043;27;20074;-60
2022/03/15 10:46:13;;;;;;;27.63;5.82;;;12.20;80.80;;;;;;5080840;27;20026;-58
2022/03/15 10:48:38;;;;;;;27.88;5.65;;;12.20;80.80;;;;;;5094268;27;20023;-59
2022/03/15 10:51:17;;;;;;;27.50;5.63;;;12.20;81.10;;;;;;5080923;28;20653;-59
2022/03/15 10:53:45;;;;;;;35.72;6.43;;;12.20;81.20;;;;;;5061111;28;20123;-61
2022/03/15 10:56:14;;;;;;;39.95;7.38;;;12.20;81.10;;;;;;5116449;27;20443;-60
2022/03/15 10:58:47;;;;;;;31.73;6.20;;;12.20;81.90;;;;;;5087627;27;20043;-61
2022/03/15 11:01:12;;;;;;;29.10;5.82;;;12.20;81.70;;;;;;5108903;27;20114;-60
2022/03/15 11:03:38;;;;;;;38.15;6.75;;;12.20;80.90;;;;;;5099292;28;20401;-60
2022/03/15 11:06:08;;;;;;;35.53;7.47;;;12.20;80.80;;;;;;5117172;27;20510;-60
2022/03/15 11:08:34;;;;;;;57.50;7.47;;;12.20;81.40;;;;;;5083587;27;20152;-62
2022/03/15 11:11:05;;;;;;;40.28;7.15;;;12.30;81.00;;;;;;5117313;27;20034;-63
2022/03/15 11:13:32;;;;;;;55.97;9.77;;;12.30;81.30;;;;;;5115542;27;20031;-62
2022/03/15 11:15:58;;;;;;;44.47;8.77;;;12.30;81.20;;;;;;5120546;27;20332;-62
2022/03/15 11:18:28;;;;;;;34.65;7.18;;;12.30;81.40;;;;;;5118332;27;20034;-63
2022/03/15 11:20:53;;;;;;;33.70;7.95;;;12.30;81.20;;;;;;5100417;27;20099;-61
2022/03/15 11:23:21;;;;;;;40.88;7.88;;;12.30;80.90;;;;;;5083139;27;20027;-61
2022/03/15 11:26:02;;;;;;;57.30;9.85;;;12.30;81.20;;;;;;5107586;27;20027;-61
2022/03/15 11:28:32;;;;;;;53.65;10.63;;;12.30;81.30;;;;;;5104190;27;20043;-61
2022/03/15 11:30:58;;;;;;;50.20;7.32;;;12.40;81.00;;;;;;5100021;27;20047;-62
2022/03/15 11:33:25;;;;;;;32.58;8.30;;;12.40;80.60;;;;;;5085650;27;20051;-61
2022/03/15 11:35:50;;;;;;;62.38;7.05;;;12.40;80.40;;;;;;5066942;27;20467;-62
2022/03/15 11:38:16;;;;;;;53.83;8.43;;;12.40;80.40;;;;;;5084658;27;20031;-62
2022/03/15 11:40:42;;;;;;;42.55;7.47;;;12.50;80.10;;;;;;5066682;27;20431;-62
2022/03/15 11:43:16;;;;;;;81.35;10.60;;;12.50;80.10;;;;;;5097998;27;20100;-61
2022/03/15 11:45:58;;;;;;;82.57;11.20;;;12.50;80.40;;;;;;5087335;27;20027;-61
2022/03/15 11:48:42;;;;;;;81.00;11.57;;;12.40;81.00;;;;;;5089672;27;20389;-62
2022/03/15 11:51:31;;;;;;;56.72;9.15;;;12.50;81.10;;;;;;5119915;27;20055;-62
2022/03/15 11:54:17;;;;;;;71.50;9.80;;;12.50;80.80;;;;;;5099429;27;20125;-58
2022/03/15 11:56:52;;;;;;;70.13;10.50;;;12.50;81.10;;;;;;5102625;27;20557;-60
2022/03/15 11:59:18;;;;;;;70.45;11.88;;;12.60;81.70;;;;;;5104431;27;20115;-61
2022/03/15 12:01:44;;;;;;;58.10;10.82;;;12.50;81.80;;;;;;5080395;27;20152;-63
2022/03/15 12:04:10;;;;;;;79.10;12.07;;;12.50;81.90;;;;;;5085760;27;20042;-62
2022/03/15 12:06:36;;;;;;;70.72;10.55;;;12.50;81.90;;;;;;5106477;27;21004;-62
2022/03/15 12:09:03;;;;;;;80.90;11.20;;;12.60;81.90;;;;;;5102741;27;20126;-61
2022/03/15 12:11:36;;;;;;;51.33;9.23;;;12.60;81.80;;;;;;5089538;27;20020;-61
2022/03/15 12:14:19;;;;;;;54.47;10.63;;;12.60;81.90;;;;;;5085115;27;20028;-63
2022/03/15 12:16:50;;;;;;;80.38;11.13;;;12.60;82.20;;;;;;5093304;27;20043;-62
2022/03/15 12:21:56;;;;;;;51.90;9.02;;;12.60;82.20;;;;;;5105284;27;20027;-59
2022/03/15 12:24:41;;;;;;;64.80;10.18;;;12.60;82.20;;;;;;5116158;27;20068;-59
2022/03/15 12:27:10;;;;;;;77.85;10.27;;;12.60;82.20;;;;;;5119918;27;20055;-61
2022/03/15 12:29:39;;;;;;;43.75;8.65;;;12.60;82.20;;;;;;5100173;27;20431;-61
2022/03/15 12:32:14;;;;;;;52.13;9.07;;;12.70;82.10;;;;;;5106412;27;20034;-61
2022/03/15 12:34:42;;;;;;;48.65;9.02;;;12.70;81.90;;;;;;5121579;27;20333;-61
2022/03/15 12:37:07;;;;;;;43.58;8.20;;;12.60;81.70;;;;;;5104950;27;20023;-62